sensor_id;sensor_type;location;lat;lon;timestamp;temperature;humidity
10123;DHT22;5101;49.038;8.710;2022-11-04T00:01:36;12.30;99.90
10123;DHT22;5101;49.038;8.710;2022-11-04T00:04:01;12.30;99.90
10123;DHT22;5101;49.038;8.710;2022-11-04T00:06:27;12.30;99.90
10123;DHT22;5101;49.038;8.710;2022-11-04T00:08:54;12.30;99.90
10123;DHT22;5101;49.038;8.710;2022-11-04T00:11:20;12.30;99.90
10123;DHT22;5101;49.038;8.710;2022-11-04T00:14:06;12.30;99.90
10123;DHT22;5101;49.038;8.710;2022-11-04T00:16:32;12.30;99.90
10123;DHT22;5101;49.038;8.710;2022-11-04T00:19:17;12.30;99.90
10123;DHT22;5101;49.038;8.710;2022-11-04T00:21:43;12.30;99.90
10123;DHT22;5101;49.038;8.710;2022-11-04T00:24:27;12.30;99.90
10123;DHT22;5101;49.038;8.710;2022-11-04T00:27:09;12.30;99.90
10123;DHT22;5101;49.038;8.710;2022-11-04T00:29:53;12.30;99.90
10123;DHT22;5101;49.038;8.710;2022-11-04T00:32:19;12.30;99.90
10123;DHT22;5101;49.038;8.710;2022-11-04T00:35:03;12.30;99.90
10123;DHT22;5101;49.038;8.710;2022-11-04T00:37:29;12.30;99.90
10123;DHT22;5101;49.038;8.710;2022-11-04T00:39:54;12.30;99.90
10123;DHT22;5101;49.038;8.710;2022-11-04T00:42:20;12.30;99.90
10123;DHT22;5101;49.038;8.710;2022-11-04T00:44:45;12.30;99.90
10123;DHT22;5101;49.038;8.710;2022-11-04T00:47:11;12.30;99.90
10123;DHT22;5101;49.038;8.710;2022-11-04T00:49:37;12.30;99.90
10123;DHT22;5101;49.038;8.710;2022-11-04T00:52:02;12.30;99.90
10123;DHT22;5101;49.038;8.710;2022-11-04T00:54:28;12.30;99.90
10123;DHT22;5101;49.038;8.710;2022-11-04T00:56:53;12.30;99.90
10123;DHT22;5101;49.038;8.710;2022-11-04T00:59:19;12.30;99.90
10123;DHT22;5101;49.038;8.710;2022-11-04T01:01:44;12.30;99.90
10123;DHT22;5101;49.038;8.710;2022-11-04T01:04:11;12.20;99.90
10123;DHT22;5101;49.038;8.710;2022-11-04T01:06:36;12.20;99.90
10123;DHT22;5101;49.038;8.710;2022-11-04T01:09:04;12.20;99.90
10123;DHT22;5101;49.038;8.710;2022-11-04T01:11:30;12.20;99.90
10123;DHT22;5101;49.038;8.710;2022-11-04T01:13:56;12.20;99.90
10123;DHT22;5101;49.038;8.710;2022-11-04T01:16:23;12.20;99.90
10123;DHT22;5101;49.038;8.710;2022-11-04T01:18:49;12.20;99.90
10123;DHT22;5101;49.038;8.710;2022-11-04T01:21:15;12.20;99.90
10123;DHT22;5101;49.038;8.710;2022-11-04T01:23:42;12.20;99.90
10123;DHT22;5101;49.038;8.710;2022-11-04T01:26:14;12.20;99.90
10123;DHT22;5101;49.038;8.710;2022-11-04T01:28:39;12.20;99.90
10123;DHT22;5101;49.038;8.710;2022-11-04T01:31:06;12.20;99.90
10123;DHT22;5101;49.038;8.710;2022-11-04T01:33:32;12.10;99.90
10123;DHT22;5101;49.038;8.710;2022-11-04T01:36:02;12.10;99.90
10123;DHT22;5101;49.038;8.710;2022-11-04T01:38:28;12.10;99.90
10123;DHT22;5101;49.038;8.710;2022-11-04T01:40:53;12.10;99.90
10123;DHT22;5101;49.038;8.710;2022-11-04T01:43:21;12.00;99.90
10123;DHT22;5101;49.038;8.710;2022-11-04T01:45:53;12.00;99.90
10123;DHT22;5101;49.038;8.710;2022-11-04T01:48:26;12.10;99.90
10123;DHT22;5101;49.038;8.710;2022-11-04T01:50:54;12.10;99.90
10123;DHT22;5101;49.038;8.710;2022-11-04T01:53:27;12.00;99.90
10123;DHT22;5101;49.038;8.710;2022-11-04T01:55:59;12.00;99.90
10123;DHT22;5101;49.038;8.710;2022-11-04T01:58:28;12.00;99.90
10123;DHT22;5101;49.038;8.710;2022-11-04T02:00:55;12.00;99.90
10123;DHT22;5101;49.038;8.710;2022-11-04T02:03:37;12.00;99.90
10123;DHT22;5101;49.038;8.710;2022-11-04T02:06:05;12.00;99.90
10123;DHT22;5101;49.038;8.710;2022-11-04T02:08:31;11.90;99.90
10123;DHT22;5101;49.038;8.710;2022-11-04T02:11:05;11.90;99.90
10123;DHT22;5101;49.038;8.710;2022-11-04T02:13:32;11.90;99.90
10123;DHT22;5101;49.038;8.710;2022-11-04T02:34:39;11.70;99.90
10123;DHT22;5101;49.038;8.710;2022-11-04T02:37:30;11.70;99.90
10123;DHT22;5101;49.038;8.710;2022-11-04T02:40:16;11.70;99.90
10123;DHT22;5101;49.038;8.710;2022-11-04T02:43:00;11.60;99.90
10123;DHT22;5101;49.038;8.710;2022-11-04T02:45:45;11.60;99.90
10123;DHT22;5101;49.038;8.710;2022-11-04T02:48:15;11.50;99.90
10123;DHT22;5101;49.038;8.710;2022-11-04T02:51:30;11.50;99.90
10123;DHT22;5101;49.038;8.710;2022-11-04T02:56:23;11.50;99.90
10123;DHT22;5101;49.038;8.710;2022-11-04T02:58:54;11.50;99.90
10123;DHT22;5101;49.038;8.710;2022-11-04T03:01:23;11.50;99.90
10123;DHT22;5101;49.038;8.710;2022-11-04T03:04:00;11.40;99.90
10123;DHT22;5101;49.038;8.710;2022-11-04T03:06:30;11.40;99.90
10123;DHT22;5101;49.038;8.710;2022-11-04T03:08:56;11.40;99.90
10123;DHT22;5101;49.038;8.710;2022-11-04T03:11:26;11.30;99.90
10123;DHT22;5101;49.038;8.710;2022-11-04T03:16:37;11.30;99.90
10123;DHT22;5101;49.038;8.710;2022-11-04T03:24:31;11.30;99.90
10123;DHT22;5101;49.038;8.710;2022-11-04T03:29:45;11.30;99.90
10123;DHT22;5101;49.038;8.710;2022-11-04T03:34:49;11.30;99.90
10123;DHT22;5101;49.038;8.710;2022-11-04T03:37:14;11.30;99.90
10123;DHT22;5101;49.038;8.710;2022-11-04T03:39:40;11.30;99.90
10123;DHT22;5101;49.038;8.710;2022-11-04T03:42:09;11.30;99.90
10123;DHT22;5101;49.038;8.710;2022-11-04T03:44:52;11.30;99.90
10123;DHT22;5101;49.038;8.710;2022-11-04T03:47:21;11.30;99.90
10123;DHT22;5101;49.038;8.710;2022-11-04T03:49:50;11.30;99.90
10123;DHT22;5101;49.038;8.710;2022-11-04T03:52:16;11.30;99.90
10123;DHT22;5101;49.038;8.710;2022-11-04T03:54:43;11.30;99.90
10123;DHT22;5101;49.038;8.710;2022-11-04T03:57:15;11.40;99.90
10123;DHT22;5101;49.038;8.710;2022-11-04T04:00:05;11.40;99.90
10123;DHT22;5101;49.038;8.710;2022-11-04T04:02:53;11.40;99.90
10123;DHT22;5101;49.038;8.710;2022-11-04T04:05:27;11.40;99.90
10123;DHT22;5101;49.038;8.710;2022-11-04T04:11:04;11.40;99.90
10123;DHT22;5101;49.038;8.710;2022-11-04T04:16:10;11.40;99.90
10123;DHT22;5101;49.038;8.710;2022-11-04T04:19:17;11.40;99.90
10123;DHT22;5101;49.038;8.710;2022-11-04T04:21:39;11.40;99.90
10123;DHT22;5101;49.038;8.710;2022-11-04T04:24:08;11.40;99.90
10123;DHT22;5101;49.038;8.710;2022-11-04T04:26:54;11.40;99.90
10123;DHT22;5101;49.038;8.710;2022-11-04T04:29:39;11.40;99.90
10123;DHT22;5101;49.038;8.710;2022-11-04T04:32:07;11.30;99.90
10123;DHT22;5101;49.038;8.710;2022-11-04T04:34:33;11.40;99.90
10123;DHT22;5101;49.038;8.710;2022-11-04T04:37:10;11.40;99.90
10123;DHT22;5101;49.038;8.710;2022-11-04T04:39:41;11.40;99.90
10123;DHT22;5101;49.038;8.710;2022-11-04T04:42:31;11.40;99.90
10123;DHT22;5101;49.038;8.710;2022-11-04T04:45:30;11.30;99.90
10123;DHT22;5101;49.038;8.710;2022-11-04T04:47:56;11.30;99.90
10123;DHT22;5101;49.038;8.710;2022-11-04T04:50:26;11.30;99.90
10123;DHT22;5101;49.038;8.710;2022-11-04T04:52:53;11.20;99.90
10123;DHT22;5101;49.038;8.710;2022-11-04T04:55:21;11.20;99.90
10123;DHT22;5101;49.038;8.710;2022-11-04T04:57:47;11.10;99.90
10123;DHT22;5101;49.038;8.710;2022-11-04T05:00:18;11.10;99.90
10123;DHT22;5101;49.038;8.710;2022-11-04T05:02:44;11.00;99.90
10123;DHT22;5101;49.038;8.710;2022-11-04T05:05:11;10.90;99.90
10123;DHT22;5101;49.038;8.710;2022-11-04T05:07:38;10.90;99.90
10123;DHT22;5101;49.038;8.710;2022-11-04T05:10:04;10.90;99.90
10123;DHT22;5101;49.038;8.710;2022-11-04T05:12:30;10.80;99.90
10123;DHT22;5101;49.038;8.710;2022-11-04T05:15:16;10.70;99.90
10123;DHT22;5101;49.038;8.710;2022-11-04T05:17:41;10.70;99.90
10123;DHT22;5101;49.038;8.710;2022-11-04T05:20:08;10.60;99.90
10123;DHT22;5101;49.038;8.710;2022-11-04T05:22:33;10.60;99.90
10123;DHT22;5101;49.038;8.710;2022-11-04T05:24:59;10.60;99.90
10123;DHT22;5101;49.038;8.710;2022-11-04T05:27:24;10.60;99.90
10123;DHT22;5101;49.038;8.710;2022-11-04T05:29:50;10.60;99.90
10123;DHT22;5101;49.038;8.710;2022-11-04T05:32:15;10.60;99.90
10123;DHT22;5101;49.038;8.710;2022-11-04T05:34:41;10.60;99.90
10123;DHT22;5101;49.038;8.710;2022-11-04T05:37:06;10.60;99.90
10123;DHT22;5101;49.038;8.710;2022-11-04T05:39:32;10.60;99.90
10123;DHT22;5101;49.038;8.710;2022-11-04T05:41:57;10.50;99.90
10123;DHT22;5101;49.038;8.710;2022-11-04T05:44:23;10.50;99.90
10123;DHT22;5101;49.038;8.710;2022-11-04T05:46:48;10.50;99.90
10123;DHT22;5101;49.038;8.710;2022-11-04T05:49:14;10.50;99.90
10123;DHT22;5101;49.038;8.710;2022-11-04T05:51:39;10.40;99.90
10123;DHT22;5101;49.038;8.710;2022-11-04T05:54:05;10.40;99.90
10123;DHT22;5101;49.038;8.710;2022-11-04T05:56:30;10.50;99.90
10123;DHT22;5101;49.038;8.710;2022-11-04T05:58:56;10.50;99.90
10123;DHT22;5101;49.038;8.710;2022-11-04T06:01:31;10.60;99.90
10123;DHT22;5101;49.038;8.710;2022-11-04T06:03:58;10.60;99.90
10123;DHT22;5101;49.038;8.710;2022-11-04T06:06:25;10.60;99.90
10123;DHT22;5101;49.038;8.710;2022-11-04T06:08:52;10.60;99.90
10123;DHT22;5101;49.038;8.710;2022-11-04T06:11:19;10.50;99.90
10123;DHT22;5101;49.038;8.710;2022-11-04T06:13:45;10.60;99.90
10123;DHT22;5101;49.038;8.710;2022-11-04T06:16:10;10.60;99.90
10123;DHT22;5101;49.038;8.710;2022-11-04T06:18:36;10.70;99.90
10123;DHT22;5101;49.038;8.710;2022-11-04T06:23:37;10.60;99.90
10123;DHT22;5101;49.038;8.710;2022-11-04T06:26:02;10.60;99.90
10123;DHT22;5101;49.038;8.710;2022-11-04T06:28:28;10.60;99.90
10123;DHT22;5101;49.038;8.710;2022-11-04T06:30:55;10.70;99.90
10123;DHT22;5101;49.038;8.710;2022-11-04T06:33:20;10.70;99.90
10123;DHT22;5101;49.038;8.710;2022-11-04T06:35:46;10.70;99.90
10123;DHT22;5101;49.038;8.710;2022-11-04T06:38:11;10.70;99.90
10123;DHT22;5101;49.038;8.710;2022-11-04T06:40:37;10.70;99.90
10123;DHT22;5101;49.038;8.710;2022-11-04T06:43:02;10.70;99.90
10123;DHT22;5101;49.038;8.710;2022-11-04T06:45:28;10.70;99.90
10123;DHT22;5101;49.038;8.710;2022-11-04T06:47:53;10.70;99.90
10123;DHT22;5101;49.038;8.710;2022-11-04T06:50:19;10.70;99.90
10123;DHT22;5101;49.038;8.710;2022-11-04T06:52:44;10.70;99.90
10123;DHT22;5101;49.038;8.710;2022-11-04T06:55:10;10.70;99.90
10123;DHT22;5101;49.038;8.710;2022-11-04T06:57:35;10.70;99.90
10123;DHT22;5101;49.038;8.710;2022-11-04T07:00:01;10.70;99.90
10123;DHT22;5101;49.038;8.710;2022-11-04T07:02:26;10.70;99.90
10123;DHT22;5101;49.038;8.710;2022-11-04T07:04:52;10.70;99.90
10123;DHT22;5101;49.038;8.710;2022-11-04T07:07:17;10.70;99.90
10123;DHT22;5101;49.038;8.710;2022-11-04T07:09:43;10.70;99.90
10123;DHT22;5101;49.038;8.710;2022-11-04T07:12:08;10.70;99.90
10123;DHT22;5101;49.038;8.710;2022-11-04T07:14:34;10.60;99.90
10123;DHT22;5101;49.038;8.710;2022-11-04T07:16:59;10.70;99.90
10123;DHT22;5101;49.038;8.710;2022-11-04T07:19:26;10.60;99.90
10123;DHT22;5101;49.038;8.710;2022-11-04T07:21:51;10.60;99.90
10123;DHT22;5101;49.038;8.710;2022-11-04T07:24:17;10.60;99.90
10123;DHT22;5101;49.038;8.710;2022-11-04T07:26:42;10.60;99.90
10123;DHT22;5101;49.038;8.710;2022-11-04T07:29:08;10.70;99.90
10123;DHT22;5101;49.038;8.710;2022-11-04T07:31:36;10.60;99.90
10123;DHT22;5101;49.038;8.710;2022-11-04T07:34:01;10.60;99.90
10123;DHT22;5101;49.038;8.710;2022-11-04T07:36:27;10.60;99.90
10123;DHT22;5101;49.038;8.710;2022-11-04T07:38:53;10.70;99.90
10123;DHT22;5101;49.038;8.710;2022-11-04T07:41:19;10.70;99.90
10123;DHT22;5101;49.038;8.710;2022-11-04T07:43:49;10.70;99.90
10123;DHT22;5101;49.038;8.710;2022-11-04T07:46:15;10.80;99.90
10123;DHT22;5101;49.038;8.710;2022-11-04T07:48:41;10.80;99.90
10123;DHT22;5101;49.038;8.710;2022-11-04T07:51:08;10.80;99.90
10123;DHT22;5101;49.038;8.710;2022-11-04T07:53:35;10.80;99.90
10123;DHT22;5101;49.038;8.710;2022-11-04T07:56:05;10.90;99.90
10123;DHT22;5101;49.038;8.710;2022-11-04T07:58:31;10.90;99.90
10123;DHT22;5101;49.038;8.710;2022-11-04T08:00:58;10.90;99.90
10123;DHT22;5101;49.038;8.710;2022-11-04T08:03:24;11.00;99.90
10123;DHT22;5101;49.038;8.710;2022-11-04T08:05:55;11.00;99.90
10123;DHT22;5101;49.038;8.710;2022-11-04T08:08:20;11.00;99.90
10123;DHT22;5101;49.038;8.710;2022-11-04T08:10:51;11.00;99.90
10123;DHT22;5101;49.038;8.710;2022-11-04T08:13:17;11.00;99.90
10123;DHT22;5101;49.038;8.710;2022-11-04T08:15:42;11.10;99.90
10123;DHT22;5101;49.038;8.710;2022-11-04T08:18:08;11.10;99.90
10123;DHT22;5101;49.038;8.710;2022-11-04T08:20:33;11.20;99.90
10123;DHT22;5101;49.038;8.710;2022-11-04T08:22:59;11.30;99.90
10123;DHT22;5101;49.038;8.710;2022-11-04T08:25:24;11.30;99.90
10123;DHT22;5101;49.038;8.710;2022-11-04T08:27:50;11.40;99.90
10123;DHT22;5101;49.038;8.710;2022-11-04T08:30:15;11.50;99.90
10123;DHT22;5101;49.038;8.710;2022-11-04T08:32:41;11.50;99.90
10123;DHT22;5101;49.038;8.710;2022-11-04T08:35:06;11.50;99.90
10123;DHT22;5101;49.038;8.710;2022-11-04T08:37:33;11.60;99.90
10123;DHT22;5101;49.038;8.710;2022-11-04T08:39:59;11.60;99.90
10123;DHT22;5101;49.038;8.710;2022-11-04T08:42:24;11.70;99.90
10123;DHT22;5101;49.038;8.710;2022-11-04T08:44:50;11.80;99.90
10123;DHT22;5101;49.038;8.710;2022-11-04T08:47:16;11.80;99.90
10123;DHT22;5101;49.038;8.710;2022-11-04T08:49:42;11.90;99.90
10123;DHT22;5101;49.038;8.710;2022-11-04T08:52:07;12.00;99.90
10123;DHT22;5101;49.038;8.710;2022-11-04T08:54:34;12.10;99.90
10123;DHT22;5101;49.038;8.710;2022-11-04T08:57:00;12.20;99.90
10123;DHT22;5101;49.038;8.710;2022-11-04T08:59:25;12.20;99.90
10123;DHT22;5101;49.038;8.710;2022-11-04T09:01:51;12.30;99.90
10123;DHT22;5101;49.038;8.710;2022-11-04T09:04:16;12.40;99.90
10123;DHT22;5101;49.038;8.710;2022-11-04T09:06:44;12.50;99.90
10123;DHT22;5101;49.038;8.710;2022-11-04T09:09:14;12.60;99.90
10123;DHT22;5101;49.038;8.710;2022-11-04T09:11:41;12.70;99.90
10123;DHT22;5101;49.038;8.710;2022-11-04T09:14:07;12.80;99.90
10123;DHT22;5101;49.038;8.710;2022-11-04T09:16:34;12.80;99.70
10123;DHT22;5101;49.038;8.710;2022-11-04T09:19:01;12.80;99.20
10123;DHT22;5101;49.038;8.710;2022-11-04T09:21:27;12.90;98.80
10123;DHT22;5101;49.038;8.710;2022-11-04T09:23:53;13.00;98.50
10123;DHT22;5101;49.038;8.710;2022-11-04T09:26:20;13.20;98.40
10123;DHT22;5101;49.038;8.710;2022-11-04T09:28:46;13.20;98.10
10123;DHT22;5101;49.038;8.710;2022-11-04T09:31:17;13.30;97.70
10123;DHT22;5101;49.038;8.710;2022-11-04T09:33:43;13.40;97.60
10123;DHT22;5101;49.038;8.710;2022-11-04T09:36:10;13.40;97.30
10123;DHT22;5101;49.038;8.710;2022-11-04T09:38:38;13.50;97.00
10123;DHT22;5101;49.038;8.710;2022-11-04T09:41:37;13.50;96.70
10123;DHT22;5101;49.038;8.710;2022-11-04T09:44:19;13.70;96.50
10123;DHT22;5101;49.038;8.710;2022-11-04T09:46:47;13.70;96.30
10123;DHT22;5101;49.038;8.710;2022-11-04T09:49:13;13.70;96.20
10123;DHT22;5101;49.038;8.710;2022-11-04T09:51:41;13.70;96.00
10123;DHT22;5101;49.038;8.710;2022-11-04T09:54:28;13.80;95.80
10123;DHT22;5101;49.038;8.710;2022-11-04T09:56:56;13.90;95.70
10123;DHT22;5101;49.038;8.710;2022-11-04T09:59:27;14.00;95.80
10123;DHT22;5101;49.038;8.710;2022-11-04T10:10:38;14.20;95.10
10123;DHT22;5101;49.038;8.710;2022-11-04T10:13:16;14.30;94.70
10123;DHT22;5101;49.038;8.710;2022-11-04T10:16:02;14.40;94.60
10123;DHT22;5101;49.038;8.710;2022-11-04T10:24:01;14.80;93.90
10123;DHT22;5101;49.038;8.710;2022-11-04T10:26:46;14.90;93.70
10123;DHT22;5101;49.038;8.710;2022-11-04T10:29:23;15.10;93.20
10123;DHT22;5101;49.038;8.710;2022-11-04T10:31:51;15.20;92.70
10123;DHT22;5101;49.038;8.710;2022-11-04T10:36:53;15.40;91.70
10123;DHT22;5101;49.038;8.710;2022-11-04T10:39:33;15.60;91.40
10123;DHT22;5101;49.038;8.710;2022-11-04T10:41:59;15.80;90.70
10123;DHT22;5101;49.038;8.710;2022-11-04T10:44:33;16.00;90.30
10123;DHT22;5101;49.038;8.710;2022-11-04T10:52:26;16.30;86.60
10123;DHT22;5101;49.038;8.710;2022-11-04T10:54:51;16.40;85.90
10123;DHT22;5101;49.038;8.710;2022-11-04T10:57:23;16.60;85.70
10123;DHT22;5101;49.038;8.710;2022-11-04T10:59:56;16.70;85.00
10123;DHT22;5101;49.038;8.710;2022-11-04T11:02:42;16.70;83.70
10123;DHT22;5101;49.038;8.710;2022-11-04T11:07:49;16.90;81.50
10123;DHT22;5101;49.038;8.710;2022-11-04T11:10:27;16.80;80.90
10123;DHT22;5101;49.038;8.710;2022-11-04T11:13:01;16.70;80.30
10123;DHT22;5101;49.038;8.710;2022-11-04T11:15:37;16.60;80.50
10123;DHT22;5101;49.038;8.710;2022-11-04T11:20:32;16.60;80.00
10123;DHT22;5101;49.038;8.710;2022-11-04T11:23:02;16.60;79.90
10123;DHT22;5101;49.038;8.710;2022-11-04T11:25:30;16.60;79.90
10123;DHT22;5101;49.038;8.710;2022-11-04T11:28:02;16.50;80.00
10123;DHT22;5101;49.038;8.710;2022-11-04T11:33:29;16.70;79.60
10123;DHT22;5101;49.038;8.710;2022-11-04T11:36:22;16.60;79.40
10123;DHT22;5101;49.038;8.710;2022-11-04T11:42:04;16.70;80.30
10123;DHT22;5101;49.038;8.710;2022-11-04T11:44:37;16.70;80.70
10123;DHT22;5101;49.038;8.710;2022-11-04T11:50:27;16.40;82.40
10123;DHT22;5101;49.038;8.710;2022-11-04T11:53:17;16.50;82.80
10123;DHT22;5101;49.038;8.710;2022-11-04T11:58:56;16.60;81.10
10123;DHT22;5101;49.038;8.710;2022-11-04T12:01:39;16.60;81.70
10123;DHT22;5101;49.038;8.710;2022-11-04T12:04:07;16.70;81.70
10123;DHT22;5101;49.038;8.710;2022-11-04T12:06:54;16.70;81.50
10123;DHT22;5101;49.038;8.710;2022-11-04T12:09:44;16.60;81.00
10123;DHT22;5101;49.038;8.710;2022-11-04T12:25:38;17.00;80.90
10123;DHT22;5101;49.038;8.710;2022-11-04T12:36:34;17.10;79.20
10123;DHT22;5101;49.038;8.710;2022-11-04T12:41:54;17.10;79.00
10123;DHT22;5101;49.038;8.710;2022-11-04T12:44:39;17.20;79.30
10123;DHT22;5101;49.038;8.710;2022-11-04T12:52:46;17.20;78.90
10123;DHT22;5101;49.038;8.710;2022-11-04T12:55:27;17.30;78.90
10123;DHT22;5101;49.038;8.710;2022-11-04T12:58:33;17.40;78.70
10123;DHT22;5101;49.038;8.710;2022-11-04T13:01:05;17.40;78.30
10123;DHT22;5101;49.038;8.710;2022-11-04T13:03:39;17.40;78.20
10123;DHT22;5101;49.038;8.710;2022-11-04T13:06:15;17.40;77.80
10123;DHT22;5101;49.038;8.710;2022-11-04T13:08:48;17.40;77.80
10123;DHT22;5101;49.038;8.710;2022-11-04T13:11:19;17.30;77.90
10123;DHT22;5101;49.038;8.710;2022-11-04T13:16:15;17.20;76.70
10123;DHT22;5101;49.038;8.710;2022-11-04T13:18:42;17.20;76.30
10123;DHT22;5101;49.038;8.710;2022-11-04T13:21:15;17.10;76.30
10123;DHT22;5101;49.038;8.710;2022-11-04T13:23:45;17.20;76.40
10123;DHT22;5101;49.038;8.710;2022-11-04T13:26:14;17.20;76.80
10123;DHT22;5101;49.038;8.710;2022-11-04T13:28:41;17.20;76.80
10123;DHT22;5101;49.038;8.710;2022-11-04T13:31:16;17.10;76.70
10123;DHT22;5101;49.038;8.710;2022-11-04T13:33:53;17.10;76.80
10123;DHT22;5101;49.038;8.710;2022-11-04T13:36:28;17.00;76.40
10123;DHT22;5101;49.038;8.710;2022-11-04T13:44:42;16.80;77.20
10123;DHT22;5101;49.038;8.710;2022-11-04T13:47:19;16.80;77.70
10123;DHT22;5101;49.038;8.710;2022-11-04T13:49:53;16.90;78.00
10123;DHT22;5101;49.038;8.710;2022-11-04T13:52:20;16.80;77.60
10123;DHT22;5101;49.038;8.710;2022-11-04T13:54:54;16.70;77.50
10123;DHT22;5101;49.038;8.710;2022-11-04T13:57:26;16.60;77.40
10123;DHT22;5101;49.038;8.710;2022-11-04T14:02:44;16.50;77.30
10123;DHT22;5101;49.038;8.710;2022-11-04T14:10:58;16.20;78.10
10123;DHT22;5101;49.038;8.710;2022-11-04T14:16:01;16.10;79.00
10123;DHT22;5101;49.038;8.710;2022-11-04T14:21:24;16.00;79.70
10123;DHT22;5101;49.038;8.710;2022-11-04T14:23:57;15.90;79.50
10123;DHT22;5101;49.038;8.710;2022-11-04T14:26:40;15.90;79.50
10123;DHT22;5101;49.038;8.710;2022-11-04T14:29:14;15.90;79.80
10123;DHT22;5101;49.038;8.710;2022-11-04T14:31:53;15.90;79.50
10123;DHT22;5101;49.038;8.710;2022-11-04T14:37:01;15.80;78.90
10123;DHT22;5101;49.038;8.710;2022-11-04T14:39:34;15.70;79.50
10123;DHT22;5101;49.038;8.710;2022-11-04T14:42:03;15.70;80.30
10123;DHT22;5101;49.038;8.710;2022-11-04T14:44:43;15.70;81.30
10123;DHT22;5101;49.038;8.710;2022-11-04T14:47:17;15.70;82.90
10123;DHT22;5101;49.038;8.710;2022-11-04T14:49:48;15.50;83.60
10123;DHT22;5101;49.038;8.710;2022-11-04T14:52:51;15.50;84.00
10123;DHT22;5101;49.038;8.710;2022-11-04T14:57:45;15.50;83.90
10123;DHT22;5101;49.038;8.710;2022-11-04T15:02:48;15.50;83.40
10123;DHT22;5101;49.038;8.710;2022-11-04T15:05:23;15.50;83.90
10123;DHT22;5101;49.038;8.710;2022-11-04T15:07:50;15.50;84.90
10123;DHT22;5101;49.038;8.710;2022-11-04T15:10:21;15.40;85.10
10123;DHT22;5101;49.038;8.710;2022-11-04T15:12:49;15.30;85.20
10123;DHT22;5101;49.038;8.710;2022-11-04T15:15:36;15.30;85.10
10123;DHT22;5101;49.038;8.710;2022-11-04T15:18:08;15.20;85.80
10123;DHT22;5101;49.038;8.710;2022-11-04T15:20:47;15.20;86.40
10123;DHT22;5101;49.038;8.710;2022-11-04T15:23:16;15.20;87.30
10123;DHT22;5101;49.038;8.710;2022-11-04T15:25:47;15.00;87.60
10123;DHT22;5101;49.038;8.710;2022-11-04T15:28:18;14.90;87.90
10123;DHT22;5101;49.038;8.710;2022-11-04T15:30:56;14.90;88.40
10123;DHT22;5101;49.038;8.710;2022-11-04T15:33:24;14.70;89.30
10123;DHT22;5101;49.038;8.710;2022-11-04T15:35:50;14.70;89.70
10123;DHT22;5101;49.038;8.710;2022-11-04T15:38:16;14.60;90.10
10123;DHT22;5101;49.038;8.710;2022-11-04T15:40:42;14.50;90.50
10123;DHT22;5101;49.038;8.710;2022-11-04T15:43:09;14.40;90.70
10123;DHT22;5101;49.038;8.710;2022-11-04T15:48:23;14.40;91.00
10123;DHT22;5101;49.038;8.710;2022-11-04T15:53:19;14.40;91.50
10123;DHT22;5101;49.038;8.710;2022-11-04T15:55:46;14.30;91.90
10123;DHT22;5101;49.038;8.710;2022-11-04T15:58:13;14.20;92.70
10123;DHT22;5101;49.038;8.710;2022-11-04T16:00:39;14.00;93.40
10123;DHT22;5101;49.038;8.710;2022-11-04T16:03:05;14.00;94.10
10123;DHT22;5101;49.038;8.710;2022-11-04T16:05:39;13.80;94.60
10123;DHT22;5101;49.038;8.710;2022-11-04T16:08:27;13.80;94.90
10123;DHT22;5101;49.038;8.710;2022-11-04T16:13:33;13.70;96.00
10123;DHT22;5101;49.038;8.710;2022-11-04T16:18:43;13.60;96.40
10123;DHT22;5101;49.038;8.710;2022-11-04T16:21:34;13.60;97.00
10123;DHT22;5101;49.038;8.710;2022-11-04T16:24:06;13.50;96.90
10123;DHT22;5101;49.038;8.710;2022-11-04T16:26:40;13.30;97.30
10123;DHT22;5101;49.038;8.710;2022-11-04T16:29:30;13.30;97.70
10123;DHT22;5101;49.038;8.710;2022-11-04T16:34:52;13.20;98.40
10123;DHT22;5101;49.038;8.710;2022-11-04T16:37:17;13.20;98.40
10123;DHT22;5101;49.038;8.710;2022-11-04T16:39:44;13.10;98.70
10123;DHT22;5101;49.038;8.710;2022-11-04T16:42:13;13.10;99.00
10123;DHT22;5101;49.038;8.710;2022-11-04T16:44:45;13.10;99.60
10123;DHT22;5101;49.038;8.710;2022-11-04T16:47:11;13.00;99.90
10123;DHT22;5101;49.038;8.710;2022-11-04T16:49:38;12.90;99.90
10123;DHT22;5101;49.038;8.710;2022-11-04T16:52:10;12.90;99.90
10123;DHT22;5101;49.038;8.710;2022-11-04T16:54:37;12.90;99.90
10123;DHT22;5101;49.038;8.710;2022-11-04T16:57:02;12.90;99.90
10123;DHT22;5101;49.038;8.710;2022-11-04T16:59:31;12.90;99.90
10123;DHT22;5101;49.038;8.710;2022-11-04T17:01:56;12.80;99.90
10123;DHT22;5101;49.038;8.710;2022-11-04T17:04:22;12.80;99.90
10123;DHT22;5101;49.038;8.710;2022-11-04T17:06:47;12.80;99.90
10123;DHT22;5101;49.038;8.710;2022-11-04T17:09:18;12.70;99.90
10123;DHT22;5101;49.038;8.710;2022-11-04T17:11:44;12.70;99.90
10123;DHT22;5101;49.038;8.710;2022-11-04T17:14:10;12.60;99.90
10123;DHT22;5101;49.038;8.710;2022-11-04T17:16:35;12.60;99.90
10123;DHT22;5101;49.038;8.710;2022-11-04T17:19:01;12.60;99.90
10123;DHT22;5101;49.038;8.710;2022-11-04T17:21:26;12.50;99.90
10123;DHT22;5101;49.038;8.710;2022-11-04T17:23:52;12.50;99.90
10123;DHT22;5101;49.038;8.710;2022-11-04T17:26:20;12.50;99.90
10123;DHT22;5101;49.038;8.710;2022-11-04T17:28:46;12.50;99.90
10123;DHT22;5101;49.038;8.710;2022-11-04T17:31:17;12.50;99.90
10123;DHT22;5101;49.038;8.710;2022-11-04T17:33:43;12.40;99.90
10123;DHT22;5101;49.038;8.710;2022-11-04T17:36:16;12.40;99.90
10123;DHT22;5101;49.038;8.710;2022-11-04T17:38:41;12.40;99.90
10123;DHT22;5101;49.038;8.710;2022-11-04T17:41:07;12.40;99.90
10123;DHT22;5101;49.038;8.710;2022-11-04T17:43:51;12.40;99.90
10123;DHT22;5101;49.038;8.710;2022-11-04T17:46:29;12.40;99.90
10123;DHT22;5101;49.038;8.710;2022-11-04T17:48:59;12.30;99.90
10123;DHT22;5101;49.038;8.710;2022-11-04T17:51:25;12.30;99.90
10123;DHT22;5101;49.038;8.710;2022-11-04T17:53:51;12.30;99.90
10123;DHT22;5101;49.038;8.710;2022-11-04T17:56:18;12.30;99.90
10123;DHT22;5101;49.038;8.710;2022-11-04T17:58:44;12.30;99.90
10123;DHT22;5101;49.038;8.710;2022-11-04T18:01:12;12.30;99.90
10123;DHT22;5101;49.038;8.710;2022-11-04T18:03:38;12.30;99.90
10123;DHT22;5101;49.038;8.710;2022-11-04T18:06:04;12.30;99.90
10123;DHT22;5101;49.038;8.710;2022-11-04T18:08:30;12.30;99.90
10123;DHT22;5101;49.038;8.710;2022-11-04T18:10:58;12.20;99.90
10123;DHT22;5101;49.038;8.710;2022-11-04T18:13:23;12.20;99.90
10123;DHT22;5101;49.038;8.710;2022-11-04T18:15:49;12.20;99.90
10123;DHT22;5101;49.038;8.710;2022-11-04T18:18:14;12.20;99.90
10123;DHT22;5101;49.038;8.710;2022-11-04T18:20:40;12.20;99.90
10123;DHT22;5101;49.038;8.710;2022-11-04T18:23:05;12.20;99.90
10123;DHT22;5101;49.038;8.710;2022-11-04T18:25:31;12.20;99.90
10123;DHT22;5101;49.038;8.710;2022-11-04T18:27:56;12.20;99.90
10123;DHT22;5101;49.038;8.710;2022-11-04T18:30:22;12.10;99.90
10123;DHT22;5101;49.038;8.710;2022-11-04T18:32:47;12.00;99.90
10123;DHT22;5101;49.038;8.710;2022-11-04T18:35:13;12.00;99.90
10123;DHT22;5101;49.038;8.710;2022-11-04T18:37:39;12.00;99.90
10123;DHT22;5101;49.038;8.710;2022-11-04T18:40:05;12.00;99.90